Time;durP1;ratioP1;P1;durP2;ratioP2;P2;SDS_P1;SDS_P2;PMS_P1;PMS_P2;Temp;Humidity;BMP_temperature;BMP_pressure;BME280_temperature;BME280_humidity;BME280_pressure;Samples;Min_cycle;Max_cycle;Signal;HPM_P1;HPM_P2
2022/04/09 00:00:39;;;;;;;;;;;;;;;19.38;36.65;100729.19;7280862;19;153258;-57
2022/04/09 00:03:06;;;;;;;;;;;;;;;19.36;36.52;100721.09;7281678;19;153459;-57
2022/04/09 00:05:32;;;;;;;;;;;;;;;19.35;36.25;100727.03;7281758;19;151533;-57
2022/04/09 00:07:59;;;;;;;;;;;;;;;19.35;36.68;100732.63;7282432;19;152727;-56
2022/04/09 00:10:26;;;;;;;;;;;;;;;19.32;36.33;100725.66;7280321;19;154575;-57
2022/04/09 00:12:52;;;;;;;;;;;;;;;19.31;36.70;100728.75;7286248;19;152107;-57
2022/04/09 00:15:21;;;;;;;;;;;;;;;19.28;36.33;100735.81;7279949;19;154619;-57
2022/04/09 00:17:54;;;;;;;;;;;;;;;19.27;36.33;100742.53;7282547;19;152054;-57
2022/04/09 00:20:21;;;;;;;;;;;;;;;19.26;36.59;100745.66;7281080;19;153440;-57
2022/04/09 00:22:48;;;;;;;;;;;;;;;19.24;36.77;100742.31;7280630;19;153850;-57
2022/04/09 00:25:20;;;;;;;;;;;;;;;19.22;36.53;100745.41;7280330;19;151848;-56
2022/04/09 00:27:54;;;;;;;;;;;;;;;19.22;36.66;100751.03;7282122;19;152892;-57
2022/04/09 00:30:21;;;;;;;;;;;;;;;19.20;36.80;100749.66;7276780;19;154361;-57
2022/04/09 00:32:47;;;;;;;;;;;;;;;19.17;36.57;100747.50;7287373;19;152016;-57
2022/04/09 00:35:15;;;;;;;;;;;;;;;19.16;36.43;100757.03;7280903;19;153245;-56
2022/04/09 00:37:44;;;;;;;;;;;;;;;19.14;36.90;100762.06;7280263;19;152078;-57
2022/04/09 00:40:12;;;;;;;;;;;;;;;19.13;36.73;100760.41;7281433;19;153472;-57
2022/04/09 00:42:42;;;;;;;;;;;;;;;19.10;36.59;100759.06;7279696;19;153371;-57
2022/04/09 00:45:10;;;;;;;;;;;;;;;19.08;36.78;100753.75;7280407;19;151777;-57
2022/04/09 00:47:36;;;;;;;;;;;;;;;19.06;36.62;100766.41;7279940;19;153142;-57
2022/04/09 00:50:04;;;;;;;;;;;;;;;19.03;36.81;100773.44;7276916;19;153319;-57
2022/04/09 00:52:33;;;;;;;;;;;;;;;19.03;36.39;100772.63;7281408;19;152042;-56
2022/04/09 00:55:02;;;;;;;;;;;;;;;19.00;36.71;100770.41;7286725;19;153353;-57
2022/04/09 00:57:31;;;;;;;;;;;;;;;18.95;36.50;100773.28;7281551;19;151909;-57
2022/04/09 00:59:58;;;;;;;;;;;;;;;18.93;36.52;100773.59;7280260;19;153677;-57
2022/04/09 01:02:25;;;;;;;;;;;;;;;18.91;36.92;100780.63;7278707;19;153954;-57
2022/04/09 01:04:52;;;;;;;;;;;;;;;18.88;36.95;100787.66;7280475;19;151963;-57
2022/04/09 01:07:19;;;;;;;;;;;;;;;18.86;36.43;100798.31;7280121;19;152714;-57
2022/04/09 01:09:46;;;;;;;;;;;;;;;18.85;36.41;100795.84;7275171;19;154907;-57
2022/04/09 01:12:14;;;;;;;;;;;;;;;18.82;36.88;100800.06;7278336;19;151601;-57
2022/04/09 01:14:41;;;;;;;;;;;;;;;18.80;36.73;100802.34;7280599;19;152709;-57
2022/04/09 01:17:09;;;;;;;;;;;;;;;18.78;36.57;100809.34;7286534;19;153215;-57
2022/04/09 01:19:35;;;;;;;;;;;;;;;18.76;36.69;100808.84;7280383;19;152656;-56
2022/04/09 01:22:03;;;;;;;;;;;;;;;18.74;36.70;100811.09;7278563;19;153543;-57
2022/04/09 01:24:30;;;;;;;;;;;;;;;18.71;36.59;100812.53;7279895;19;151581;-56
2022/04/09 01:26:58;;;;;;;;;;;;;;;18.69;36.62;100814.78;7279998;19;152557;-57
2022/04/09 01:29:25;;;;;;;;;;;;;;;18.67;36.70;100820.66;7276041;19;153970;-57
2022/04/09 01:31:51;;;;;;;;;;;;;;;18.65;36.55;100830.50;7279600;19;151792;-57
2022/04/09 01:34:19;;;;;;;;;;;;;;;18.61;36.62;100837.84;7278910;19;153098;-57
2022/04/09 01:36:46;;;;;;;;;;;;;;;18.60;36.94;100838.97;7279308;19;153349;-56
2022/04/09 01:39:17;;;;;;;;;;;;;;;18.56;36.54;100835.09;7285936;19;151819;-56
2022/04/09 01:41:45;;;;;;;;;;;;;;;18.55;36.71;100847.41;7278617;19;153281;-57
2022/04/09 01:44:11;;;;;;;;;;;;;;;18.52;36.94;100842.41;7278479;19;151881;-57
2022/04/09 01:46:44;;;;;;;;;;;;;;;18.51;36.88;100843.50;7279848;19;153604;-56
2022/04/09 01:49:12;;;;;;;;;;;;;;;18.50;36.49;100841.84;7276591;19;153777;-57
2022/04/09 01:51:39;;;;;;;;;;;;;;;18.46;36.56;100847.19;7279360;19;151644;-56
2022/04/09 01:54:06;;;;;;;;;;;;;;;18.44;36.51;100849.44;7279073;19;153177;-57
2022/04/09 01:56:33;;;;;;;;;;;;;;;18.43;36.68;100856.19;7277107;19;153536;-57
2022/04/09 01:58:59;;;;;;;;;;;;;;;18.39;36.92;100846.75;7279574;19;152426;-57
2022/04/09 02:01:26;;;;;;;;;;;;;;;18.39;36.59;100851.50;7281320;19;152687;-57
2022/04/09 02:03:53;;;;;;;;;;;;;;;18.35;36.86;100854.03;7279112;19;152086;-57
2022/04/09 02:06:20;;;;;;;;;;;;;;;18.35;36.84;100862.41;7278451;19;153003;-56
2022/04/09 02:08:46;;;;;;;;;;;;;;;18.31;36.72;100858.53;7275273;19;153959;-57
2022/04/09 02:11:14;;;;;;;;;;;;;;;18.31;36.96;100866.94;7278575;19;152249;-56
2022/04/09 02:13:41;;;;;;;;;;;;;;;18.28;37.31;100877.88;7273579;19;153286;-56
2022/04/09 02:16:07;;;;;;;;;;;;;;;18.25;37.29;100879.31;7274505;19;153978;-57
2022/04/09 02:18:34;;;;;;;;;;;;;;;18.25;37.20;100881.28;7275971;19;151882;-57
2022/04/09 02:21:01;;;;;;;;;;;;;;;18.22;37.10;100875.13;7278698;19;153176;-57
2022/04/09 02:23:28;;;;;;;;;;;;;;;18.21;37.07;100881.84;7280391;19;154333;-56
2022/04/09 02:25:54;;;;;;;;;;;;;;;18.19;37.20;100884.13;7278188;19;151931;-56
2022/04/09 02:28:21;;;;;;;;;;;;;;;18.17;37.16;100886.38;7275821;19;154107;-56
2022/04/09 02:30:48;;;;;;;;;;;;;;;18.15;37.15;100887.81;7275665;19;151945;-56
2022/04/09 02:33:14;;;;;;;;;;;;;;;18.14;37.07;100892.56;7274667;19;152693;-55
2022/04/09 02:35:42;;;;;;;;;;;;;;;18.13;37.35;100888.09;7278254;19;153285;-56
2022/04/09 02:38:09;;;;;;;;;;;;;;;18.10;37.37;100894.28;7283976;19;151978;-56
2022/04/09 02:40:36;;;;;;;;;;;;;;;18.11;37.22;100895.13;7284556;19;152723;-56
2022/04/09 02:43:03;;;;;;;;;;;;;;;18.08;37.16;100892.91;7288694;19;155170;-56
2022/04/09 02:45:29;;;;;;;;;;;;;;;18.05;37.40;100905.50;7283900;19;153249;-56
2022/04/09 02:47:56;;;;;;;;;;;;;;;18.04;37.19;100905.78;7282876;19;153487;-56
2022/04/09 02:50:23;;;;;;;;;;;;;;;18.04;37.17;100912.22;7282385;19;151750;-56
2022/04/09 02:52:50;;;;;;;;;;;;;;;18.02;37.18;100911.69;7283961;19;152545;-56
2022/04/09 02:55:16;;;;;;;;;;;;;;;17.99;37.22;100911.44;7279707;19;153668;-56
2022/04/09 02:57:45;;;;;;;;;;;;;;;18.00;37.28;100910.28;7284369;19;152487;-56
2022/04/09 03:00:12;;;;;;;;;;;;;;;17.96;37.25;100915.66;7283092;19;153302;-56
2022/04/09 03:02:39;;;;;;;;;;;;;;;17.95;37.29;100922.34;7282311;19;153857;-56
2022/04/09 03:05:06;;;;;;;;;;;;;;;17.92;37.66;100928.53;7290853;19;151920;-56
2022/04/09 03:07:33;;;;;;;;;;;;;;;17.96;37.56;100934.38;7280531;19;153413;-56
2022/04/09 03:10:00;;;;;;;;;;;;;;;17.90;37.42;100930.78;7282851;19;152448;-56
2022/04/09 03:12:27;;;;;;;;;;;;;;;17.90;37.29;100932.75;7283321;19;154159;-57
2022/04/09 03:14:54;;;;;;;;;;;;;;;17.87;37.65;100931.38;7282941;19;153358;-56
2022/04/09 03:17:20;;;;;;;;;;;;;;;17.86;37.30;100926.91;7282185;19;151751;-56
2022/04/09 03:19:47;;;;;;;;;;;;;;;17.88;37.38;100938.63;7282318;19;152727;-56
2022/04/09 03:22:14;;;;;;;;;;;;;;;17.85;37.23;100941.19;7282735;19;153271;-56
2022/04/09 03:24:41;;;;;;;;;;;;;;;17.84;37.27;100947.88;7283284;19;151884;-56
2022/04/09 03:27:07;;;;;;;;;;;;;;;17.82;37.36;100947.34;7288084;19;155894;-56
2022/04/09 03:29:34;;;;;;;;;;;;;;;17.83;37.32;100957.41;7282549;19;151662;-56
2022/04/09 03:32:01;;;;;;;;;;;;;;;17.80;37.35;100956.03;7284053;19;153342;-56
2022/04/09 03:34:28;;;;;;;;;;;;;;;17.78;37.53;100953.50;7282047;19;154561;-56
2022/04/09 03:36:55;;;;;;;;;;;;;;;17.76;37.76;100960.53;7283930;19;151981;-56
2022/04/09 03:39:22;;;;;;;;;;;;;;;17.79;37.58;100959.94;7283942;19;152626;-56
2022/04/09 03:41:49;;;;;;;;;;;;;;;17.79;37.27;100971.13;7281563;19;153393;-56
2022/04/09 03:44:35;;;;;;;;;;;;;;;17.77;37.55;100971.41;7283371;19;151824;-56
2022/04/09 03:47:03;;;;;;;;;;;;;;;17.73;37.27;100978.69;7281586;19;153639;-56
2022/04/09 03:49:30;;;;;;;;;;;;;;;17.74;37.61;100990.72;7288854;19;153917;-56
2022/04/09 03:51:58;;;;;;;;;;;;;;;17.69;37.54;100993.53;7283587;19;154320;-55
2022/04/09 03:54:25;;;;;;;;;;;;;;;17.73;37.35;100986.22;7281352;19;153909;-57
2022/04/09 03:56:53;;;;;;;;;;;;;;;17.70;37.40;100998.00;7283299;19;152021;-56
2022/04/09 03:59:20;;;;;;;;;;;;;;;17.66;37.39;100989.38;7280717;19;153989;-56
2022/04/09 04:01:47;;;;;;;;;;;;;;;17.69;37.56;100993.53;7279196;19;154041;-56
2022/04/09 04:04:14;;;;;;;;;;;;;;;17.64;37.39;100997.19;7282840;19;152160;-56
2022/04/09 04:06:41;;;;;;;;;;;;;;;17.63;37.65;100995.50;7282816;19;153462;-55
2022/04/09 04:09:08;;;;;;;;;;;;;;;17.66;37.42;101006.13;7282068;19;153376;-56
2022/04/09 04:11:35;;;;;;;;;;;;;;;17.64;37.66;101011.16;7286594;19;152252;-56
2022/04/09 04:14:03;;;;;;;;;;;;;;;17.61;37.44;101022.06;7281763;19;154006;-56
2022/04/09 04:16:30;;;;;;;;;;;;;;;17.61;37.53;101019.28;7282799;19;151987;-56
2022/04/09 04:18:57;;;;;;;;;;;;;;;17.58;37.68;101017.03;7281179;19;153555;-56
2022/04/09 04:21:23;;;;;;;;;;;;;;;17.55;37.65;101018.44;7280892;19;152640;-56
2022/04/09 04:23:50;;;;;;;;;;;;;;;17.61;37.77;101022.06;7281960;19;151668;-57
2022/04/09 04:26:17;;;;;;;;;;;;;;;17.59;37.38;101018.72;7282882;19;153232;-55
2022/04/09 04:28:51;;;;;;;;;;;;;;;17.57;37.72;101023.75;7280609;19;153791;-56
2022/04/09 04:31:18;;;;;;;;;;;;;;;17.50;37.44;101026.00;7280115;19;151971;-56
2022/04/09 04:33:45;;;;;;;;;;;;;;;17.52;37.59;101029.34;7287795;19;153766;-55
2022/04/09 04:36:12;;;;;;;;;;;;;;;17.54;37.79;101027.09;7281967;19;152032;-57
2022/04/09 04:38:39;;;;;;;;;;;;;;;17.49;37.82;101024.34;7281710;19;153042;-56
2022/04/09 04:41:06;;;;;;;;;;;;;;;17.45;37.82;101026.84;7278594;19;153358;-56
2022/04/09 04:43:32;;;;;;;;;;;;;;;17.47;37.58;101030.22;7279449;19;151629;-56
2022/04/09 04:45:59;;;;;;;;;;;;;;;17.45;37.75;101035.22;7281811;19;151963;-55
2022/04/09 04:48:26;;;;;;;;;;;;;;;17.41;37.70;101031.34;7278489;19;154450;-56
2022/04/09 04:50:53;;;;;;;;;;;;;;;17.46;37.75;101039.69;7277305;19;151907;-56
2022/04/09 04:53:20;;;;;;;;;;;;;;;17.46;37.79;101038.88;7286146;19;152633;-56
2022/04/09 04:55:47;;;;;;;;;;;;;;;17.39;37.90;101044.78;7280899;19;151830;-56
2022/04/09 04:58:17;;;;;;;;;;;;;;;17.43;37.80;101045.03;7279999;19;151877;-56
2022/04/09 05:00:43;;;;;;;;;;;;;;;17.37;37.74;101062.91;7279194;19;153477;-56
2022/04/09 05:03:10;;;;;;;;;;;;;;;17.38;37.49;101047.84;7281078;19;151946;-56
2022/04/09 05:05:37;;;;;;;;;;;;;;;17.40;37.56;101054.00;7280738;19;153359;-56
2022/04/09 05:08:03;;;;;;;;;;;;;;;17.32;37.57;101061.81;7279815;19;153714;-56
2022/04/09 05:10:30;;;;;;;;;;;;;;;17.31;38.00;101062.09;7279091;19;151894;-56
2022/04/09 05:12:59;;;;;;;;;;;;;;;17.29;37.56;101070.75;7279121;19;152883;-56
2022/04/09 05:15:26;;;;;;;;;;;;;;;17.31;38.10;101074.09;7286427;19;153748;-57
2022/04/09 05:17:59;;;;;;;;;;;;;;;17.35;37.78;101077.19;7279205;19;154000;-56
2022/04/09 05:20:25;;;;;;;;;;;;;;;17.40;38.23;101088.31;7279860;19;153432;-56
2022/04/09 05:22:52;;;;;;;;;;;;;;;17.42;37.99;101091.66;7278748;19;151925;-56
2022/04/09 05:25:19;;;;;;;;;;;;;;;17.47;38.31;101093.59;7278757;19;152805;-56
2022/04/09 05:27:49;;;;;;;;;;;;;;;17.53;37.84;101090.53;7278063;19;152525;-56
2022/04/09 05:30:20;;;;;;;;;;;;;;;17.59;38.04;101089.41;7279460;19;152000;-56
2022/04/09 05:32:47;;;;;;;;;;;;;;;17.66;38.07;101100.28;7279852;19;151995;-56
2022/04/09 05:35:14;;;;;;;;;;;;;;;17.74;37.83;101108.06;7276503;19;154136;-56
2022/04/09 05:37:45;;;;;;;;;;;;;;;17.81;38.11;101114.19;7287230;19;151877;-56
2022/04/09 05:40:12;;;;;;;;;;;;;;;17.87;37.81;101118.63;7276696;19;154753;-56
2022/04/09 05:42:39;;;;;;;;;;;;;;;17.93;37.82;101122.25;7279027;19;152012;-56
2022/04/09 05:45:06;;;;;;;;;;;;;;;17.99;37.46;101123.91;7278611;19;152650;-56
2022/04/09 05:47:33;;;;;;;;;;;;;;;18.06;37.37;101119.66;7276489;19;154874;-56
2022/04/09 05:49:59;;;;;;;;;;;;;;;18.13;37.29;101119.31;7279819;19;152121;-56
2022/04/09 05:52:26;;;;;;;;;;;;;;;18.18;37.50;101122.09;7279438;19;153388;-56
2022/04/09 05:54:53;;;;;;;;;;;;;;;18.23;37.07;101125.72;7278299;19;153280;-56
2022/04/09 05:57:21;;;;;;;;;;;;;;;18.30;37.03;101130.16;7279860;19;152077;-57
2022/04/09 05:59:48;;;;;;;;;;;;;;;18.36;36.87;101131.78;7283027;19;152219;-56
2022/04/09 06:02:14;;;;;;;;;;;;;;;18.42;36.91;101142.66;7279341;19;151831;-56
2022/04/09 06:04:41;;;;;;;;;;;;;;;18.48;36.97;101137.88;7278526;19;152834;-56
2022/04/09 06:07:09;;;;;;;;;;;;;;;18.54;37.01;101139.53;7275628;19;154464;-56
2022/04/09 06:09:36;;;;;;;;;;;;;;;18.60;36.83;101143.97;7277456;19;151564;-56
2022/04/09 06:12:05;;;;;;;;;;;;;;;18.64;36.63;101150.66;7281456;19;152006;-56
2022/04/09 06:14:32;;;;;;;;;;;;;;;18.69;36.67;101145.03;7282408;19;153487;-56
2022/04/09 06:16:59;;;;;;;;;;;;;;;18.75;36.43;101157.03;7283638;19;152020;-56
2022/04/09 06:19:27;;;;;;;;;;;;;;;18.80;36.41;101162.59;7285468;19;151748;-56
2022/04/09 06:21:54;;;;;;;;;;;;;;;18.84;36.46;101161.72;7290219;19;155197;-56
2022/04/09 06:24:20;;;;;;;;;;;;;;;18.89;36.09;101158.88;7284524;19;152672;-56
2022/04/09 06:26:47;;;;;;;;;;;;;;;18.94;36.10;101169.19;7283722;19;153184;-56
2022/04/09 06:29:14;;;;;;;;;;;;;;;18.98;36.35;101176.72;7285064;19;152308;-56
2022/04/09 06:31:41;;;;;;;;;;;;;;;19.02;35.94;101175.00;7283709;19;152613;-56
2022/04/09 06:34:07;;;;;;;;;;;;;;;19.07;36.22;101179.72;7281611;19;153353;-56
2022/04/09 06:36:34;;;;;;;;;;;;;;;19.09;35.97;101178.28;7282829;19;152141;-56
2022/04/09 06:39:01;;;;;;;;;;;;;;;19.14;35.85;101177.41;7284962;19;154527;-56
2022/04/09 06:41:28;;;;;;;;;;;;;;;19.20;36.09;101183.81;7283313;19;152643;-56
2022/04/09 06:43:55;;;;;;;;;;;;;;;19.23;35.58;101181.25;7292620;19;152122;-56
2022/04/09 06:46:22;;;;;;;;;;;;;;;19.27;36.04;101178.69;7281668;19;153529;-56
2022/04/09 06:48:49;;;;;;;;;;;;;;;19.30;35.73;101180.94;7283925;19;151772;-56
2022/04/09 06:51:15;;;;;;;;;;;;;;;19.35;35.78;101189.28;7282044;19;153313;-56
2022/04/09 06:53:42;;;;;;;;;;;;;;;19.39;35.72;101191.19;7282701;19;154001;-56
2022/04/09 06:56:09;;;;;;;;;;;;;;;19.41;35.50;101197.31;7284960;19;151923;-56
2022/04/09 06:58:36;;;;;;;;;;;;;;;19.45;35.44;101200.41;7284536;19;152676;-56
2022/04/09 07:01:03;;;;;;;;;;;;;;;19.49;35.40;101198.69;7283690;19;153606;-56
2022/04/09 07:03:30;;;;;;;;;;;;;;;19.52;35.02;101204.56;7291071;19;151731;-56
2022/04/09 07:05:56;;;;;;;;;;;;;;;19.56;35.50;101206.75;7280902;19;153750;-56
2022/04/09 07:08:24;;;;;;;;;;;;;;;19.58;35.22;101213.72;7281141;19;151961;-56
2022/04/09 07:10:50;;;;;;;;;;;;;;;19.62;34.96;101212.03;7281910;19;152626;-56
2022/04/09 07:13:17;;;;;;;;;;;;;;;19.65;34.98;101214.22;7281021;19;155850;-56
2022/04/09 07:15:44;;;;;;;;;;;;;;;19.69;35.26;101226.50;7283345;19;152204;-56
2022/04/09 07:18:11;;;;;;;;;;;;;;;19.71;34.99;101229.88;7284904;19;152753;-56
2022/04/09 07:20:40;;;;;;;;;;;;;;;19.73;34.97;101230.41;7282127;19;154176;-56
2022/04/09 07:23:06;;;;;;;;;;;;;;;19.76;35.19;101228.97;7283368;19;151871;-56
2022/04/09 07:25:35;;;;;;;;;;;;;;;19.77;34.94;101231.47;7289448;19;153275;-57
2022/04/09 07:28:02;;;;;;;;;;;;;;;19.78;35.04;101235.13;7283754;19;152151;-56
2022/04/09 07:30:29;;;;;;;;;;;;;;;19.79;34.61;101240.44;7283073;19;155001;-56
2022/04/09 07:32:58;;;;;;;;;;;;;;;19.80;34.80;101244.06;7278178;19;152456;-56
2022/04/09 07:35:26;;;;;;;;;;;;;;;19.80;35.02;101250.53;7280498;19;151632;-56
2022/04/09 07:38:00;;;;;;;;;;;;;;;19.80;34.58;101244.06;7281561;19;153038;-56
2022/04/09 07:40:29;;;;;;;;;;;;;;;19.78;34.82;101246.31;7283230;19;154704;-56
2022/04/09 07:42:57;;;;;;;;;;;;;;;19.79;34.63;101245.19;7280370;19;151883;-57
2022/04/09 07:45:24;;;;;;;;;;;;;;;19.78;34.90;101249.13;7281353;19;153531;-56
2022/04/09 07:47:56;;;;;;;;;;;;;;;19.76;34.38;101248.59;7288542;19;154075;-56
2022/04/09 07:50:25;;;;;;;;;;;;;;;19.76;34.62;101248.59;7281288;19;155106;-56
2022/04/09 07:52:53;;;;;;;;;;;;;;;19.74;34.53;101259.28;7279421;19;152485;-56
2022/04/09 07:55:20;;;;;;;;;;;;;;;19.73;34.74;101260.41;7283495;19;151950;-57
2022/04/09 07:57:52;;;;;;;;;;;;;;;19.71;34.85;101263.50;7282742;19;153651;-56
2022/04/09 08:00:31;;;;;;;;;;;;;;;19.68;34.72;101266.88;7281873;19;152506;-56
2022/04/09 08:02:58;;;;;;;;;;;;;;;19.66;34.75;101266.34;7282147;19;152073;-56
2022/04/09 08:05:24;;;;;;;;;;;;;;;19.66;34.62;101268.31;7282996;19;152776;-56
2022/04/09 08:07:57;;;;;;;;;;;;;;;19.63;34.83;101268.88;7277825;19;154685;-56
2022/04/09 08:10:25;;;;;;;;;;;;;;;19.61;34.69;101268.38;7290243;19;152457;-56
2022/04/09 08:12:53;;;;;;;;;;;;;;;19.57;34.49;101262.53;7278001;19;153055;-56
2022/04/09 08:15:21;;;;;;;;;;;;;;;19.54;34.61;101272.34;7280799;19;151806;-56
2022/04/09 08:17:49;;;;;;;;;;;;;;;19.53;34.70;101267.84;7280595;19;152757;-56
2022/04/09 08:20:39;;;;;;;;;;;;;;;19.50;34.85;101276.88;7279022;19;156603;-56
2022/04/09 08:23:05;;;;;;;;;;;;;;;19.47;35.02;101274.66;7280572;19;151687;-56
2022/04/09 08:25:32;;;;;;;;;;;;;;;19.46;35.14;101278.56;7281138;19;152073;-56
2022/04/09 08:28:00;;;;;;;;;;;;;;;19.44;35.00;101282.81;7281398;19;153928;-56
2022/04/09 08:30:26;;;;;;;;;;;;;;;19.41;34.69;101278.59;7281282;19;152161;-56
2022/04/09 08:32:54;;;;;;;;;;;;;;;19.39;35.16;101277.22;7286526;19;153778;-56
2022/04/09 08:35:21;;;;;;;;;;;;;;;19.38;35.09;101286.75;7280830;19;151769;-56
2022/04/09 08:37:54;;;;;;;;;;;;;;;19.35;35.21;101287.34;7282605;19;152890;-56
2022/04/09 08:40:26;;;;;;;;;;;;;;;19.34;35.18;101291.25;7277925;19;153642;-56
2022/04/09 08:42:53;;;;;;;;;;;;;;;19.30;35.09;101293.81;7279291;19;152394;-56
2022/04/09 08:45:19;;;;;;;;;;;;;;;19.28;35.27;101298.88;7282572;19;152706;-56
2022/04/09 08:47:48;;;;;;;;;;;;;;;19.26;34.90;101297.50;7278137;19;152794;-55
2022/04/09 08:50:19;;;;;;;;;;;;;;;19.25;35.25;101296.66;7282098;19;152307;-55
2022/04/09 08:52:46;;;;;;;;;;;;;;;19.24;34.93;101294.97;7278919;19;153849;-55
2022/04/09 08:55:13;;;;;;;;;;;;;;;19.21;35.28;101300.34;7287472;19;151777;-55
2022/04/09 08:57:40;;;;;;;;;;;;;;;19.20;34.95;101310.69;7279354;19;153925;-56
2022/04/09 09:00:13;;;;;;;;;;;;;;;19.19;35.36;101296.97;7278025;19;153291;-55
2022/04/09 09:02:49;;;;;;;;;;;;;;;19.18;34.87;101295.28;7281024;19;152229;-56
2022/04/09 09:05:37;;;;;;;;;;;;;;;19.16;35.30;101305.97;7279926;19;153173;-55
2022/04/09 09:08:04;;;;;;;;;;;;;;;19.12;35.24;101304.88;7277408;19;153889;-56
2022/04/09 09:10:31;;;;;;;;;;;;;;;19.07;35.05;101301.00;7278511;19;151708;-56
2022/04/09 09:13:09;;;;;;;;;;;;;;;19.06;35.16;101304.91;7275609;19;152675;-56
2022/04/09 09:15:52;;;;;;;;;;;;;;;19.06;35.05;101315.28;7287843;19;153764;-55
2022/04/09 09:18:19;;;;;;;;;;;;;;;19.03;34.82;101308.28;7278546;19;154472;-55
2022/04/09 09:20:49;;;;;;;;;;;;;;;19.03;35.17;101313.06;7278425;19;154182;-55
2022/04/09 09:23:23;;;;;;;;;;;;;;;19.03;34.81;101315.84;7279759;19;152079;-58
2022/04/09 09:25:51;;;;;;;;;;;;;;;19.02;35.01;101314.19;7278515;19;154426;-57
2022/04/09 09:28:22;;;;;;;;;;;;;;;19.02;34.96;101330.97;7280310;19;153856;-57
2022/04/09 09:30:48;;;;;;;;;;;;;;;18.99;35.22;101321.19;7278003;19;153589;-57
2022/04/09 09:33:15;;;;;;;;;;;;;;;18.99;34.90;101311.94;7276308;19;152026;-57
2022/04/09 09:36:02;;;;;;;;;;;;;;;18.97;35.02;101322.59;7277036;19;156845;-57
2022/04/09 09:38:31;;;;;;;;;;;;;;;18.96;35.25;101318.13;7288277;19;151832;-57
2022/04/09 09:40:58;;;;;;;;;;;;;;;18.95;34.84;101311.69;7279263;19;153902;-57
2022/04/09 09:43:26;;;;;;;;;;;;;;;18.95;35.07;101308.03;7280913;19;151866;-57
2022/04/09 09:45:53;;;;;;;;;;;;;;;18.91;35.23;101312.56;7275009;19;153021;-57
2022/04/09 09:48:35;;;;;;;;;;;;;;;18.90;34.93;101317.31;7276805;19;154668;-57
2022/04/09 09:51:02;;;;;;;;;;;;;;;18.88;35.06;101322.38;7279632;19;151984;-57
2022/04/09 09:53:32;;;;;;;;;;;;;;;18.90;34.78;101331.31;7275079;19;152723;-57
2022/04/09 09:55:59;;;;;;;;;;;;;;;18.88;34.92;101336.38;7278808;19;153524;-57
2022/04/09 09:58:27;;;;;;;;;;;;;;;18.87;34.71;101325.44;7281146;19;151921;-57
2022/04/09 10:01:14;;;;;;;;;;;;;;;18.87;35.08;101320.69;7286469;19;156655;-57
2022/04/09 10:03:42;;;;;;;;;;;;;;;18.87;34.77;101325.44;7279711;19;151750;-57
2022/04/09 10:06:09;;;;;;;;;;;;;;;18.85;34.92;101327.72;7280259;19;155615;-57
2022/04/09 10:08:36;;;;;;;;;;;;;;;18.84;35.00;101326.88;7275937;19;154253;-57
2022/04/09 10:11:03;;;;;;;;;;;;;;;18.84;34.81;101331.63;7280018;19;151887;-57
2022/04/09 10:13:32;;;;;;;;;;;;;;;18.85;35.01;101330.53;7276071;19;152172;-57
2022/04/09 10:15:58;;;;;;;;;;;;;;;18.84;34.92;101334.44;7276490;19;152226;-57
2022/04/09 10:18:25;;;;;;;;;;;;;;;18.84;34.91;101332.47;7276628;19;152938;-57
2022/04/09 10:20:59;;;;;;;;;;;;;;;18.84;35.20;101331.63;7277539;19;152442;-57
2022/04/09 10:23:32;;;;;;;;;;;;;;;18.80;35.04;101344.53;7284721;19;153369;-57
2022/04/09 10:26:00;;;;;;;;;;;;;;;18.79;35.15;101340.06;7279164;19;154627;-57
2022/04/09 10:28:31;;;;;;;;;;;;;;;18.80;34.99;101341.75;7277859;19;155601;-56
2022/04/09 10:30:58;;;;;;;;;;;;;;;18.80;34.85;101344.53;7276191;19;151644;-57
2022/04/09 10:33:29;;;;;;;;;;;;;;;18.82;34.64;101348.72;7276168;19;152239;-56
2022/04/09 10:36:02;;;;;;;;;;;;;;;18.84;34.74;101345.63;7277420;19;153273;-57
2022/04/09 10:38:29;;;;;;;;;;;;;;;18.86;34.60;101354.56;7277017;19;151910;-57
2022/04/09 10:41:02;;;;;;;;;;;;;;;18.85;34.56;101350.94;7278020;19;152979;-57
2022/04/09 10:43:38;;;;;;;;;;;;;;;18.84;34.31;101346.47;7277323;19;155000;-57
2022/04/09 10:46:06;;;;;;;;;;;;;;;18.85;34.48;101352.91;7282453;19;152281;-57
2022/04/09 10:48:33;;;;;;;;;;;;;;;18.84;34.55;101351.22;7276758;19;154106;-57
2022/04/09 10:51:02;;;;;;;;;;;;;;;18.84;34.72;101349.28;7277438;19;151951;-57
2022/04/09 10:53:30;;;;;;;;;;;;;;;18.78;34.16;101358.81;7276422;19;153544;-57
2022/04/09 10:56:17;;;;;;;;;;;;;;;18.81;33.56;101349.81;7276564;19;153313;-57
2022/04/09 10:59:03;;;;;;;;;;;;;;;18.77;34.27;101339.50;7283078;19;152204;-57
2022/04/09 11:01:48;;;;;;;;;;;;;;;18.78;33.93;101336.41;7282109;19;154226;-56
2022/04/09 11:04:28;;;;;;;;;;;;;;;18.78;34.11;101339.22;7282566;19;153560;-58
2022/04/09 11:07:02;;;;;;;;;;;;;;;18.82;34.20;101339.47;7290358;19;151712;-56
2022/04/09 11:09:41;;;;;;;;;;;;;;;18.84;34.06;101340.88;7283474;19;154651;-57
2022/04/09 11:12:08;;;;;;;;;;;;;;;18.83;34.21;101341.16;7280435;19;152371;-56
2022/04/09 11:14:45;;;;;;;;;;;;;;;18.85;33.98;101348.13;7284046;19;153773;-56
2022/04/09 11:17:30;;;;;;;;;;;;;;;18.85;33.96;101345.31;7282177;19;153934;-56
2022/04/09 11:20:02;;;;;;;;;;;;;;;18.87;33.87;101357.09;7281621;19;152070;-56
2022/04/09 11:22:36;;;;;;;;;;;;;;;18.87;33.80;101351.50;7283196;19;153517;-56
2022/04/09 11:25:04;;;;;;;;;;;;;;;18.89;33.48;101362.41;7283655;19;153133;-56
2022/04/09 11:27:32;;;;;;;;;;;;;;;18.89;33.75;101348.41;7284657;19;151681;-56
2022/04/09 11:29:59;;;;;;;;;;;;;;;18.88;33.68;101355.97;7289469;19;153505;-56
2022/04/09 11:32:27;;;;;;;;;;;;;;;18.83;33.68;101344.78;7281806;19;151695;-56
2022/04/09 11:34:55;;;;;;;;;;;;;;;18.85;34.15;101350.13;7282766;19;152612;-56
2022/04/09 11:37:23;;;;;;;;;;;;;;;18.89;33.76;101348.41;7282645;19;155078;-56
2022/04/09 11:39:51;;;;;;;;;;;;;;;18.88;33.79;101355.97;7283020;19;151502;-56
2022/04/09 11:42:18;;;;;;;;;;;;;;;18.89;33.89;101354.00;7281541;19;151903;-56
2022/04/09 11:44:49;;;;;;;;;;;;;;;18.84;34.21;101356.84;7279247;19;153674;-56
2022/04/09 11:47:22;;;;;;;;;;;;;;;18.85;34.38;101362.13;7283636;19;151898;-56
2022/04/09 11:49:49;;;;;;;;;;;;;;;18.86;34.07;101352.59;7282795;19;152598;-58
2022/04/09 11:52:26;;;;;;;;;;;;;;;18.89;33.73;101359.63;7287573;19;153799;-56
2022/04/09 11:54:54;;;;;;;;;;;;;;;18.87;33.52;101357.09;7280860;19;153153;-56
2022/04/09 11:57:21;;;;;;;;;;;;;;;18.89;33.38;101363.25;7281931;19;155358;-56
2022/04/09 11:59:52;;;;;;;;;;;;;;;18.90;33.59;101362.09;7283627;19;152105;-56
2022/04/09 12:02:20;;;;;;;;;;;;;;;18.91;33.16;101357.34;7282809;19;152632;-56
2022/04/09 12:04:48;;;;;;;;;;;;;;;18.90;33.47;101355.66;7279875;19;155760;-56
2022/04/09 12:07:15;;;;;;;;;;;;;;;18.91;33.02;101352.59;7282242;19;152024;-56
2022/04/09 12:09:42;;;;;;;;;;;;;;;18.90;33.22;101358.47;7280659;19;152221;-56
2022/04/09 12:12:09;;;;;;;;;;;;;;;18.85;32.89;101362.13;7278200;19;153261;-56
2022/04/09 12:14:36;;;;;;;;;;;;;;;18.86;32.89;101369.41;7287532;19;152458;-56
2022/04/09 12:17:18;;;;;;;;;;;;;;;18.85;33.29;101372.50;7281165;19;153658;-56
2022/04/09 12:19:45;;;;;;;;;;;;;;;18.83;33.06;101367.19;7280108;19;152141;-56
2022/04/09 12:22:13;;;;;;;;;;;;;;;18.85;33.32;101369.72;7279738;19;153430;-55
2022/04/09 12:24:48;;;;;;;;;;;;;;;18.86;33.07;101368.56;7281812;19;153833;-56
2022/04/09 12:27:39;;;;;;;;;;;;;;;18.85;32.94;101367.72;7282236;19;151728;-56
2022/04/09 12:30:06;;;;;;;;;;;;;;;18.86;32.91;101365.75;7282196;19;153741;-56
2022/04/09 12:32:33;;;;;;;;;;;;;;;18.83;33.13;101375.59;7280544;19;153524;-56
2022/04/09 12:35:04;;;;;;;;;;;;;;;18.82;33.94;101373.06;7282699;19;151789;-56